LESOGEML

Guest
Details From LESO - San_Sebastian
To GEML - MELILLA
Flight Number -
Tags decoded
Created
Modified
Stats Distance 522 nm / 966 km
Max Altitude 0 ft / 0 m
Waypoints 7
Social Downloads 0
Likes 0
Share VATSIM

Download

Looking for another format? Having issues loading an existing format? Contact us
Advertisement - Login to hide

Notes

Requested: LESO GARVU HERMI CJN AMR PEKOP GEML

Route

LESO GARVU HERMI CJN AMR PEKOP GEML

ID Type Via Altitude Latitude Longitude Leg Dist Tot Dist Heading (true) Name
O LESO APT - 0 ft / 0 m 43.35652˚ -1.79061˚ - 0 nm - San_Sebastian
GARVU FIX - 0 ft / 0 m 42.17104˚ -2.07781˚ 72 nm 72 nm 190° / 190° -
HERMI FIX - 0 ft / 0 m 41.47354˚ -2.53329˚ 46 nm 118 nm 206° / 206° -
CJN VOR - 0 ft / 0 m 40.37196˚ -2.54461˚ 66 nm 185 nm 180° / 180° CASTEJON VOR-DME
AMR VOR - 0 ft / 0 m 36.83317˚ -2.25942˚ 212 nm 398 nm 176° / 176° ALMERIA VOR-DME
PEKOP FIX - 0 ft / 0 m 35.83333˚ -3.44083˚ 82 nm 480 nm 224° / 223° -
O GEML APT - 0 ft / 0 m 35.28037˚ -2.95671˚ 40 nm 521 nm 144° / 145° MELILLA

Altitude Profile

Advertisement - Login to hide

Weather


0- 5 10 15 20 25 30 35+ Temperature / ° C

Clouds and Precipitation
Forecast for 2017-12-15 18:00 UTC. Updated an hour ago

Ground ~20,000 ft ~40,000 ft Winds

LESO

Details ICAO LESO (EAS)
Name San_Sebastian
Region Spain
Timezone Europe/Madrid (UTC+1.0)
Stats Elevation 14 ft / 4 m (AMSL)
Location 43.356520° -1.790611°
Runways 1
Magnetic Variation 0.297° W

METAR

LESO 151608Z 24011KT 190V310 9999 -TSRA SCT022 BKN034CB BKN047 09/06 Q1011

Decode

TAF

TAF LESO 151100Z 1512/1612 27009KT 9999 SCT018 BKN030 TX13/1514Z TN06/1606Z BECMG 1516/1519 33014KT PROB40 TEMPO 1512/1612 33015G25KT TEMPO 1512/1612 3000 SHRA SCT030TCU PROB40 TEMPO 1512/1612 1000 +SHRA TSRA SCT025CB

Decode

Departure Runways

ID Width Length Bearing (true) Bearing (mag) Surface Threshold Offset Overrun Length
04 148 ft / 45 m 5,762 ft / 1,756 m 38.68° 38.98° Asphalt 0 ft / 0 m 0 ft / 0 m
22 148 ft / 45 m 5,762 ft / 1,756 m 218.69° 218.99° Asphalt 0 ft / 0 m 0 ft / 0 m

GEML

Details ICAO GEML (MLN)
Name MELILLA
Region Ceuta and Melilla
Timezone Africa/Casablanca (UTC+0.0)
Stats Elevation 156 ft / 48 m (AMSL)
Location 35.280374° -2.956708°
Runways 1
Magnetic Variation 0.454° W

METAR

GEML 151600Z 26011G21KT 210V300 9999 FEW014 17/13 Q1014

Decode

TAF

TAF GEML 151400Z 1515/1615 26009KT 9999 SCT030 TX18/1515Z TN13/1607Z TEMPO 1515/1516 27015G28KT TEMPO 1604/1612 4000 RA BKN014 PROB40 TEMPO 1609/1615 10010KT

Decode

Destination Runways

ID Width Length Bearing (true) Bearing (mag) Surface Threshold Offset Overrun Length
15 148 ft / 45 m 4,811 ft / 1,466 m 146.39° 146.84° Asphalt 755 ft / 230 m 0 ft / 0 m
33 148 ft / 45 m 4,811 ft / 1,466 m 326.40° 326.85° Asphalt 0 ft / 0 m 0 ft / 0 m

Popular Alternatives